地図

経路データ

SID SEASON NUMBER BASIN SUBBASIN NAME ISO_TIME NATURE LAT LON WMO_WIND WMO_PRES WMO_AGENCY TRACK_TYPE DIST2LAND LANDFALL IFLAG USA_AGENCY USA_ATCF_ID USA_LAT USA_LON USA_RECORD USA_STATUS USA_WIND USA_PRES USA_SSHS USA_R34_NE USA_R34_SE USA_R34_SW USA_R34_NW USA_R50_NE USA_R50_SE USA_R50_SW USA_R50_NW USA_R64_NE USA_R64_SE USA_R64_SW USA_R64_NW USA_POCI USA_ROCI USA_RMW USA_EYE TOKYO_LAT TOKYO_LON TOKYO_GRADE TOKYO_WIND TOKYO_PRES TOKYO_R50_DIR TOKYO_R50_LONG TOKYO_R50_SHORT TOKYO_R30_DIR TOKYO_R30_LONG TOKYO_R30_SHORT TOKYO_LAND CMA_LAT CMA_LON CMA_CAT CMA_WIND CMA_PRES HKO_LAT HKO_LON HKO_CAT HKO_WIND HKO_PRES NEWDELHI_LAT NEWDELHI_LON NEWDELHI_GRADE NEWDELHI_WIND NEWDELHI_PRES NEWDELHI_CI NEWDELHI_DP NEWDELHI_POCI REUNION_LAT REUNION_LON REUNION_TYPE REUNION_WIND REUNION_PRES REUNION_TNUM REUNION_CI REUNION_RMW REUNION_R34_NE REUNION_R34_SE REUNION_R34_SW REUNION_R34_NW REUNION_R50_NE REUNION_R50_SE REUNION_R50_SW REUNION_R50_NW REUNION_R64_NE REUNION_R64_SE REUNION_R64_SW REUNION_R64_NW BOM_LAT BOM_LON BOM_TYPE BOM_WIND BOM_PRES BOM_TNUM BOM_CI BOM_RMW BOM_R34_NE BOM_R34_SE BOM_R34_SW BOM_R34_NW BOM_R50_NE BOM_R50_SE BOM_R50_SW BOM_R50_NW BOM_R64_NE BOM_R64_SE BOM_R64_SW BOM_R64_NW BOM_ROCI BOM_POCI BOM_EYE BOM_POS_METHOD BOM_PRES_METHOD NADI_LAT NADI_LON NADI_CAT NADI_WIND NADI_PRES WELLINGTON_LAT WELLINGTON_LON WELLINGTON_WIND WELLINGTON_PRES DS824_LAT DS824_LON DS824_STAGE DS824_WIND DS824_PRES TD9636_LAT TD9636_LON TD9636_STAGE TD9636_WIND TD9636_PRES TD9635_LAT TD9635_LON TD9635_WIND TD9635_PRES TD9635_ROCI NEUMANN_LAT NEUMANN_LON NEUMANN_CLASS NEUMANN_WIND NEUMANN_PRES MLC_LAT MLC_LON MLC_CLASS MLC_WIND MLC_PRES USA_GUST BOM_GUST BOM_GUST_PER REUNION_GUST REUNION_GUST_PER USA_SEAHGT USA_SEARAD_NE USA_SEARAD_SE USA_SEARAD_SW USA_SEARAD_NW STORM_SPEED STORM_DIR
1914065S13157 1914 7 SP EA NOT_NAMED 1914-03-05 23:00:00 NR -13.0000 156.900 bom main 477 477 ______O_______ -1 -13.0000 156.900 4 249
1914065S13157 1914 7 SP EA NOT_NAMED 1914-03-06 00:00:00 TS -13.0202 156.838 main 485 485 ______P__O____ -1 -13.0303 156.858 -13.0000 156.800 TC 3 239
1914065S13157 1914 7 SP EA NOT_NAMED 1914-03-06 03:00:00 TS -13.1159 156.705 main 500 500 ______P__P____ -1 -13.1223 156.730 -13.1063 156.669 TC 3 233
1914065S13157 1914 7 SP EA NOT_NAMED 1914-03-06 06:00:00 TS -13.2173 156.572 main 516 516 ______P__P____ -1 -13.2186 156.599 -13.2156 156.535 TC 3 232
1914065S13157 1914 7 SP EA NOT_NAMED 1914-03-06 09:00:00 TS -13.3266 156.431 main 539 539 ______P__P____ -1 -13.3224 156.463 -13.3308 156.399 TC 4 230
1914065S13157 1914 7 SP EA NOT_NAMED 1914-03-06 12:00:00 TS -13.4458 156.289 main 555 555 ______P__P____ -1 -13.4368 156.320 -13.4549 156.257 TC 4 229
1914065S13157 1914 7 SP EA NOT_NAMED 1914-03-06 15:00:00 TS -13.5780 156.138 main 586 586 ______P__P____ -1 -13.5652 156.168 -13.5909 156.108 TC 4 227
1914065S13157 1914 7 SP EA NOT_NAMED 1914-03-06 18:00:00 TS -13.7262 155.977 main 601 601 ______P__P____ -1 -13.7107 156.004 -13.7417 155.950 TC 5 226
1914065S13157 1914 7 SP EA NOT_NAMED 1914-03-06 21:00:00 TS -13.8935 155.804 main 632 632 ______P__P____ -1 -13.8765 155.827 -13.9104 155.781 TC 5 225
1914065S13157 1914 7 SP EA NOT_NAMED 1914-03-06 23:00:00 TS -14.0172 155.681 bom main 646 646 ______O__P____ -1 -14.0000 155.700 -14.0343 155.662 TC 5 224
1914065S13157 1914 7 SP EA NOT_NAMED 1914-03-07 00:00:00 TS -14.0830 155.617 main 661 657 ______P__O____ -1 -14.0659 155.634 -14.1000 155.600 TC 6 223
1914065S13157 1914 7 SP EA NOT_NAMED 1914-03-07 03:00:00 TS -14.2953 155.415 main 657 655 ______P__P____ -1 -14.2787 155.425 -14.3119 155.406 TC 6 222
1914065S13157 1914 7 SP EA NOT_NAMED 1914-03-07 06:00:00 TS -14.5260 155.203 main 655 654 ______P__P____ -1 -14.5098 155.205 -14.5422 155.201 TC 6 221
1914065S13157 1914 7 SP EA NOT_NAMED 1914-03-07 09:00:00 TS -14.7694 154.985 main 662 654 ______P__P____ -1 -14.7537 154.980 -14.7852 154.991 TC 7 221
1914065S13157 1914 7 SP EA NOT_NAMED 1914-03-07 12:00:00 TS -15.0202 154.766 main 663 656 ______P__P____ -1 -15.0049 154.754 -15.0355 154.779 TC 7 220
1914065S13157 1914 7 SP EA NOT_NAMED 1914-03-07 15:00:00 TS -15.2727 154.551 main 675 668 ______P__P____ -1 -15.2579 154.532 -15.2876 154.569 TC 6 219
1914065S13157 1914 7 SP EA NOT_NAMED 1914-03-07 18:00:00 TS -15.5216 154.343 main 673 673 ______P__P____ -1 -15.5072 154.319 -15.5360 154.367 TC 6 218
1914065S13157 1914 7 SP EA NOT_NAMED 1914-03-07 21:00:00 TS -15.7614 154.148 main 688 688 ______P__P____ -1 -15.7475 154.121 -15.7753 154.176 TC 6 218
1914065S13157 1914 7 SP EA NOT_NAMED 1914-03-07 23:00:00 TS -15.9135 154.028 bom main 692 692 ______O__P____ -1 -15.9000 154.000 -15.9270 154.057 TC 6 218
1914065S13157 1914 7 SP EA NOT_NAMED 1914-03-08 00:00:00 TS -15.9845 153.971 main 702 696 ______P__O____ -1 -15.9691 153.941 -16.0000 154.000 TC 5 220
1914065S13157 1914 7 SP EA NOT_NAMED 1914-03-08 03:00:00 TS -16.1809 153.798 main 699 668 ______P__P____ -1 -16.1695 153.775 -16.1922 153.820 TC 5 220
1914065S13157 1914 7 SP EA NOT_NAMED 1914-03-08 06:00:00 TS -16.3663 153.638 main 668 653 ______P__P____ -1 -16.3604 153.624 -16.3721 153.651 TC 5 219
1914065S13157 1914 7 SP EA NOT_NAMED 1914-03-08 09:00:00 TS -16.5421 153.493 main 653 630 ______P__P____ -1 -16.5426 153.488 -16.5415 153.497 TC 4 217
1914065S13157 1914 7 SP EA NOT_NAMED 1914-03-08 12:00:00 TS -16.7097 153.366 main 630 607 ______P__P____ -1 -16.7168 153.370 -16.7025 153.363 TC 4 214
1914065S13157 1914 7 SP EA NOT_NAMED 1914-03-08 15:00:00 TS -16.8704 153.260 main 607 592 ______P__P____ -1 -16.8839 153.269 -16.8568 153.251 TC 4 210
1914065S13157 1914 7 SP EA NOT_NAMED 1914-03-08 18:00:00 TS -17.0255 153.178 main 592 570 ______P__P____ -1 -17.0445 153.189 -17.0066 153.167 TC 3 203
1914065S13157 1914 7 SP EA NOT_NAMED 1914-03-08 21:00:00 TS -17.1766 153.122 main 570 563 ______P__P____ -1 -17.1995 153.128 -17.1537 153.116 TC 3 198
1914065S13157 1914 7 SP EA NOT_NAMED 1914-03-08 23:00:00 TS -17.2756 153.100 988 bom main 563 563 ______O__P____ -1 -17.3000 153.100 988 4 -17.2512 153.101 TC 3 196
1914065S13157 1914 7 SP EA NOT_NAMED 1914-03-09 00:00:00 TS -17.3236 153.077 main 563 541 ______P__O____ -1 -17.3472 153.053 -17.3000 153.100 TC 50 988 3 208
1914065S13157 1914 7 SP EA NOT_NAMED 1914-03-09 03:00:00 TS -17.4784 152.986 main 541 526 ______P__P____ -1 -17.4821 152.913 -17.4747 153.060 TC 3 206
1914065S13157 1914 7 SP EA NOT_NAMED 1914-03-09 06:00:00 TS -17.6306 152.918 main 526 513 ______P__P____ -1 -17.6104 152.788 -17.6508 153.048 TC 3 197
1914065S13157 1914 7 SP EA NOT_NAMED 1914-03-09 09:00:00 TS -17.7809 152.882 main 513 507 ______P__P____ -1 -17.7360 152.697 -17.8258 153.067 TC 3 0
1914065S13157 1914 7 SP EA NOT_NAMED 1914-03-09 12:00:00 TS -17.9299 152.892 main 507 495 ______P__P____ -1 -17.8627 152.661 -17.9972 153.124 TC 3 166
1914065S13157 1914 7 SP EA NOT_NAMED 1914-03-09 15:00:00 TS -18.0784 152.960 main 505 499 ______P__P____ -1 -17.9945 152.697 -18.1623 153.222 TC 4 147
1914065S13157 1914 7 SP EA NOT_NAMED 1914-03-09 18:00:00 TS -18.2269 153.096 main 508 503 ______P__P____ -1 -18.1354 152.826 -18.3185 153.366 TC 5 131
1914065S13157 1914 7 SP EA NOT_NAMED 1914-03-09 21:00:00 TS -18.3760 153.314 main 517 517 ______P__P____ -1 -18.2889 153.067 -18.4631 153.561 TC 6 122
1914065S13157 1914 7 SP EA NOT_NAMED 1914-03-09 23:00:00 TS -18.4759 153.511 bom main 524 524 ______O__P____ -1 -18.4000 153.300 -18.5517 153.722 TC 7 118
1914065S13157 1914 7 SP EA NOT_NAMED 1914-03-10 00:00:00 TS -18.5302 153.627 main 530 527 ______P__P____ -1 -18.4670 153.442 -18.5934 153.812 TC 8 113
1914065S13157 1914 7 SP EA NOT_NAMED 1914-03-10 03:00:00 TS -18.6884 154.032 main 537 537 ______P__P____ -1 -18.6701 153.941 -18.7067 154.124 TC 9 110
1914065S13157 1914 7 SP EA NOT_NAMED 1914-03-10 06:00:00 TS -18.8253 154.503 main 564 563 ______P__O____ -1 -18.8506 154.506 -18.8000 154.500 TC 9 106
1914065S13157 1914 7 SP EA NOT_NAMED 1914-03-10 07:00:00 TS -18.8631 154.670 bom main 571 571 ______O__P____ -1 -18.9000 154.700 -18.8262 154.641 TC 10 102
1914065S13157 1914 7 SP EA NOT_NAMED 1914-03-10 09:00:00 TS -18.9240 155.010 main 593 593 ______P__P____ -1 -18.9765 155.076 -18.8714 154.943 TC 10 98
1914065S13157 1914 7 SP EA NOT_NAMED 1914-03-10 12:00:00 TS -18.9853 155.550 main 634 634 ______P__P____ -1 -19.0475 155.656 -18.9230 155.445 TC 11 95
1914065S13157 1914 7 SP EA NOT_NAMED 1914-03-10 15:00:00 TS -19.0162 156.117 main 675 675 ______P__P____ -1 -19.0741 156.240 -18.9583 155.993 TC 11 92
1914065S13157 1914 7 SP EA NOT_NAMED 1914-03-10 18:00:00 TS -19.0231 156.695 main 727 716 ______P__P____ -1 -19.0657 156.813 -18.9805 156.576 TC 11 90
1914065S13157 1914 7 SP EA NOT_NAMED 1914-03-10 21:00:00 TS -19.0153 157.284 main 716 685 ______P__P____ -1 -19.0319 157.359 -18.9932 157.182 TC 11 89
1914065S13157 1914 7 SP EA NOT_NAMED 1914-03-10 23:00:00 TS -18.9994 157.665 bom main 675 665 ______O__P____ -1 -19.0000 157.700 -18.9981 157.594 TC 11 87
1914065S13157 1914 7 SP EA NOT_NAMED 1914-03-11 00:00:00 TS -18.9858 157.849 main 665 617 ______P__O____ -1 -18.9823 157.862 -19.0000 157.800 TC 9 83
1914065S13157 1914 7 SP EA NOT_NAMED 1914-03-11 03:00:00 NR -18.9237 158.314 main 617 576 ______P_______ -1 -18.9237 158.314 TC 8 81
1914065S13157 1914 7 SP EA NOT_NAMED 1914-03-11 06:00:00 NR -18.8577 158.720 main 576 540 ______P_______ -1 -18.8577 158.720 TC 7 79
1914065S13157 1914 7 SP EA NOT_NAMED 1914-03-11 09:00:00 NR -18.7856 159.089 main 540 514 ______P_______ -1 -18.7856 159.089 TC 7 77
1914065S13157 1914 7 SP EA NOT_NAMED 1914-03-11 12:00:00 NR -18.7085 159.426 main 514 484 ______P_______ -1 -18.7085 159.426 TC 6 76
1914065S13157 1914 7 SP EA NOT_NAMED 1914-03-11 15:00:00 NR -18.6275 159.738 main 489 460 ______P_______ -1 -18.6275 159.738 TC 6 74
1914065S13157 1914 7 SP MM NOT_NAMED 1914-03-11 18:00:00 NR -18.5437 160.032 main 465 437 ______P_______ -1 -18.5437 160.032 6 73
1914065S13157 1914 7 SP MM NOT_NAMED 1914-03-11 21:00:00 NR -18.4578 160.315 main 437 424 ______P_______ -1 -18.4578 160.315 6 72
1914065S13157 1914 7 SP MM NOT_NAMED 1914-03-11 23:00:00 NR -18.4000 160.500 bom main 424 ______O_______ -1 -18.4000 160.500 6 72

デジタル台風データ・検索

IBTrACS Databaseについて

本データベースは、米国NOAAが公開する1842年以降の世界の熱帯低気圧のベストトラックデータアーカイブInternational Best Track Archive for Climate Stewardship (IBTrACS)を、ウェブで閲覧しやすい形式に変換したものです。

最終更新日:2021-12-01